createdAt,value
2019-05-09T06:42:08.940Z,2.58
2019-05-09T06:44:49.095Z,2.77
2019-05-09T06:47:21.497Z,3.05
2019-05-09T06:49:52.941Z,3.40
2019-05-09T06:52:23.035Z,3.20
2019-05-09T06:54:52.929Z,3.83
2019-05-09T06:57:22.744Z,3.75
2019-05-09T06:59:52.994Z,3.90
2019-05-09T07:02:28.257Z,4.37
2019-05-09T07:04:59.866Z,3.85
2019-05-09T07:07:37.490Z,3.92
2019-05-09T07:10:08.410Z,3.90
2019-05-09T07:12:38.241Z,3.90
2019-05-09T07:15:08.976Z,3.90
2019-05-09T07:17:38.960Z,3.12
2019-05-09T07:20:08.846Z,4.00
2019-05-09T07:22:48.070Z,4.25
2019-05-09T07:25:32.448Z,3.83
2019-05-09T07:28:02.320Z,3.87
2019-05-09T07:30:49.993Z,3.20
2019-05-09T07:33:21.785Z,4.50
2019-05-09T07:35:51.659Z,3.90
2019-05-09T07:38:31.396Z,3.58
2019-05-09T07:41:01.372Z,3.20
2019-05-09T07:43:32.244Z,3.47
2019-05-09T07:46:08.793Z,3.12
2019-05-09T07:48:39.697Z,4.20
2019-05-09T07:51:09.485Z,3.47
2019-05-09T07:53:39.342Z,3.52
2019-05-09T07:56:09.125Z,3.02
2019-05-09T07:58:38.929Z,3.15
2019-05-09T08:01:08.874Z,3.47
2019-05-09T08:03:38.816Z,3.85
2019-05-09T08:06:09.005Z,3.92
2019-05-09T08:08:38.984Z,4.95
2019-05-09T08:11:09.103Z,3.70
2019-05-09T08:13:39.684Z,4.03
2019-05-09T08:16:13.984Z,3.37
2019-05-09T08:18:42.017Z,3.90
2019-05-09T08:21:11.812Z,3.40
2019-05-09T08:23:41.604Z,3.67
2019-05-09T08:26:11.401Z,3.33
2019-05-09T08:28:41.294Z,4.65
2019-05-09T08:31:11.168Z,3.87
2019-05-09T08:33:41.273Z,4.08
2019-05-09T08:36:11.141Z,4.30
2019-05-09T08:38:41.088Z,4.67
2019-05-09T08:41:12.297Z,4.45
2019-05-09T08:43:42.365Z,5.28
2019-05-09T08:46:12.510Z,5.10
2019-05-09T08:48:42.419Z,5.47
2019-05-09T08:51:13.931Z,4.45
2019-05-09T08:53:43.741Z,4.10
2019-05-09T08:56:13.575Z,4.03
2019-05-09T08:58:44.436Z,4.35
2019-05-09T09:01:14.419Z,3.62
2019-05-09T09:03:44.286Z,3.12
2019-05-09T09:06:14.154Z,5.28
2019-05-09T09:08:44.348Z,2.90
2019-05-09T09:11:14.156Z,3.30
2019-05-09T09:13:43.960Z,2.75
2019-05-09T09:16:18.802Z,2.90
2019-05-09T09:18:47.855Z,2.22
2019-05-09T09:21:18.303Z,3.55
2019-05-09T09:23:50.835Z,4.47
2019-05-09T09:26:19.568Z,3.30
2019-05-09T09:28:49.370Z,2.92
2019-05-09T09:31:19.186Z,2.02
2019-05-09T09:33:48.982Z,2.20
2019-05-09T09:36:18.945Z,2.50
2019-05-09T09:38:48.750Z,2.05
2019-05-09T09:41:18.550Z,2.12
2019-05-09T09:43:48.460Z,1.87
2019-05-09T09:46:18.432Z,2.25
2019-05-09T09:48:48.393Z,2.15
2019-05-09T09:51:19.801Z,2.00
2019-05-09T09:53:49.634Z,3.72
2019-05-09T09:56:22.297Z,1.90
2019-05-09T09:58:58.741Z,1.20
2019-05-09T10:01:44.816Z,1.42
2019-05-09T10:04:23.529Z,1.72
2019-05-09T10:06:48.662Z,1.52
2019-05-09T10:09:19.686Z,1.30
2019-05-09T10:11:49.476Z,1.10
2019-05-09T10:14:37.113Z,1.20
2019-05-09T10:17:10.375Z,1.02
2019-05-09T10:19:48.021Z,1.17
2019-05-09T10:22:23.833Z,0.93
2019-05-09T10:24:49.773Z,1.25
2019-05-09T10:27:19.586Z,1.20
2019-05-09T10:29:49.431Z,1.20
2019-05-09T10:32:19.174Z,1.62
2019-05-09T10:34:49.221Z,0.88
2019-05-09T10:37:21.822Z,1.20
2019-05-09T10:39:52.757Z,0.95
2019-05-09T10:42:30.257Z,0.60
2019-05-09T10:45:04.677Z,0.68
2019-05-09T10:47:37.297Z,0.80
2019-05-09T10:50:08.617Z,0.42
2019-05-09T10:52:38.561Z,0.72
2019-05-09T10:55:09.259Z,0.72
2019-05-09T10:57:42.597Z,0.98
2019-05-09T11:00:11.275Z,1.00
2019-05-09T11:02:41.077Z,0.90
2019-05-09T11:05:11.261Z,0.80
2019-05-09T11:07:41.133Z,1.10
2019-05-09T11:10:24.542Z,0.90
2019-05-09T11:12:42.369Z,0.70
2019-05-09T11:15:12.165Z,1.67
2019-05-09T11:17:41.982Z,1.90
2019-05-09T11:20:11.786Z,1.12
2019-05-09T11:22:42.161Z,1.45
2019-05-09T11:25:12.418Z,1.12
2019-05-09T11:27:42.352Z,1.30
2019-05-09T11:30:12.118Z,1.07
2019-05-09T11:32:41.914Z,1.37
2019-05-09T11:35:11.717Z,1.50
2019-05-09T11:37:41.567Z,1.90
2019-05-09T11:40:11.732Z,1.65
2019-05-09T11:42:41.530Z,2.10
2019-05-09T11:45:11.413Z,1.77
2019-05-09T11:47:46.206Z,1.62
2019-05-09T11:50:12.676Z,2.47
2019-05-09T11:52:42.597Z,3.05
2019-05-09T11:55:28.776Z,1.37
2019-05-09T11:57:43.898Z,2.22
2019-05-09T12:00:13.887Z,2.55
2019-05-09T12:02:43.717Z,2.42
2019-05-09T12:05:13.825Z,3.40
2019-05-09T12:07:43.698Z,2.10
2019-05-09T12:10:13.502Z,2.33
2019-05-09T12:12:43.364Z,2.22
2019-05-09T12:15:13.165Z,2.10
2019-05-09T12:17:56.621Z,1.95
2019-05-09T12:20:15.348Z,2.05
2019-05-09T12:22:45.288Z,2.08
2019-05-09T12:25:15.121Z,1.80
2019-05-09T12:27:44.980Z,1.10
2019-05-09T12:30:14.801Z,1.02
2019-05-09T12:32:44.934Z,1.90
2019-05-09T12:35:14.740Z,2.25
2019-05-09T12:37:44.637Z,2.42
2019-05-09T12:40:14.595Z,2.27
2019-05-09T12:42:44.358Z,2.35
2019-05-09T12:45:14.157Z,2.30
2019-05-09T12:47:43.957Z,2.85
2019-05-09T12:50:14.032Z,1.90
2019-05-09T12:52:44.018Z,1.52
2019-05-09T12:55:13.913Z,1.87
2019-05-09T12:57:44.733Z,2.20
2019-05-09T13:00:14.525Z,2.05
2019-05-09T13:02:44.393Z,1.75
2019-05-09T13:05:14.193Z,1.55
2019-05-09T13:07:43.999Z,1.82
2019-05-09T13:10:13.928Z,1.65
2019-05-09T13:12:44.603Z,1.77
2019-05-09T13:15:14.433Z,1.62
2019-05-09T13:17:47.993Z,1.50
2019-05-09T13:20:18.173Z,1.50
2019-05-09T13:22:48.022Z,1.80
2019-05-09T13:25:18.771Z,2.00
2019-05-09T13:27:52.756Z,2.35
2019-05-09T13:30:21.425Z,2.10
2019-05-09T13:32:51.238Z,2.40
2019-05-09T13:35:21.410Z,2.17
2019-05-09T13:37:51.208Z,2.25
2019-05-09T13:40:22.149Z,2.00
2019-05-09T13:42:52.387Z,1.80
2019-05-09T13:45:22.196Z,2.08
2019-05-09T13:47:52.060Z,2.30
2019-05-09T13:50:21.865Z,2.00
2019-05-09T13:52:51.728Z,2.00
2019-05-09T13:55:21.533Z,1.82
2019-05-09T13:57:51.669Z,2.37
2019-05-09T14:00:21.601Z,2.08
2019-05-09T14:02:51.433Z,1.72
2019-05-09T14:05:21.280Z,1.80
2019-05-09T14:07:55.295Z,1.60
2019-05-09T14:10:23.480Z,1.80
2019-05-09T14:13:05.661Z,1.72
2019-05-09T14:15:27.497Z,1.80
2019-05-09T14:17:58.259Z,1.30
2019-05-09T14:20:29.227Z,2.47
2019-05-09T14:22:59.225Z,2.17
2019-05-09T14:25:29.330Z,1.47
2019-05-09T14:27:59.565Z,1.72
2019-05-09T14:30:29.352Z,2.12
2019-05-09T14:33:00.327Z,2.55
2019-05-09T14:35:30.385Z,2.45
2019-05-09T14:38:00.185Z,1.92
2019-05-09T14:40:30.353Z,1.90
2019-05-09T14:43:00.149Z,2.70
2019-05-09T14:45:30.025Z,2.05
2019-05-09T14:47:59.820Z,2.65
2019-05-09T14:50:29.626Z,2.33
2019-05-09T14:52:59.635Z,2.70
2019-05-09T14:55:29.857Z,2.05
2019-05-09T14:57:59.656Z,2.42
2019-05-09T15:00:29.653Z,2.67
2019-05-09T15:02:59.465Z,3.47
2019-05-09T15:05:29.272Z,2.90
2019-05-09T15:07:59.566Z,3.27
2019-05-09T15:10:29.360Z,3.95
2019-05-09T15:13:00.237Z,3.33
2019-05-09T15:15:32.650Z,4.20
2019-05-09T15:18:01.542Z,3.12
2019-05-09T15:20:31.354Z,3.45
2019-05-09T15:23:01.212Z,5.53
2019-05-09T15:25:31.288Z,4.85
2019-05-09T15:28:01.203Z,4.58
2019-05-09T15:30:30.981Z,4.67
2019-05-09T15:33:00.782Z,4.58
2019-05-09T15:35:30.592Z,5.25
2019-05-09T15:38:00.456Z,5.50
2019-05-09T15:40:30.561Z,6.25
2019-05-09T15:43:00.367Z,6.55
2019-05-09T15:45:31.928Z,6.55
2019-05-09T15:48:02.166Z,6.42
2019-05-09T15:50:31.924Z,7.25
2019-05-09T15:53:01.725Z,7.08
2019-05-09T15:55:31.530Z,6.53
2019-05-09T15:58:01.334Z,5.97
2019-05-09T16:00:32.455Z,7.05
2019-05-09T16:03:02.440Z,8.65
2019-05-09T16:05:32.305Z,7.72
2019-05-09T16:08:02.177Z,6.95
2019-05-09T16:10:32.081Z,8.03
2019-05-09T16:13:14.837Z,8.98
2019-05-09T16:15:44.718Z,8.40
2019-05-09T16:18:14.526Z,8.80
2019-05-09T16:20:44.439Z,7.80
2019-05-09T16:23:14.308Z,10.15
2019-05-09T16:25:44.116Z,8.90
2019-05-09T16:28:13.920Z,9.90
2019-05-09T16:30:43.748Z,8.10
2019-05-09T16:33:13.549Z,8.53
2019-05-09T16:35:43.485Z,9.48
2019-05-09T16:38:13.284Z,7.85
2019-05-09T16:40:43.138Z,7.42
2019-05-09T16:43:13.913Z,8.23
2019-05-09T16:45:47.519Z,7.70
2019-05-09T16:48:18.529Z,6.87
2019-05-09T16:51:00.660Z,5.90
2019-05-09T16:53:20.709Z,7.20
2019-05-09T16:55:50.652Z,7.17
2019-05-09T16:58:20.449Z,6.03
2019-05-09T17:00:54.062Z,6.47
2019-05-09T17:03:23.839Z,6.72
2019-05-09T17:05:53.687Z,6.25
2019-05-09T17:08:23.569Z,6.65
2019-05-09T17:10:54.334Z,7.08
2019-05-09T17:13:24.446Z,7.12
2019-05-09T17:15:54.258Z,7.65
2019-05-09T17:18:24.149Z,7.58
2019-05-09T17:21:18.330Z,8.23
2019-05-09T17:23:42.348Z,6.72
2019-05-09T17:26:12.149Z,6.87
2019-05-09T17:28:41.944Z,7.22
2019-05-09T17:31:11.816Z,7.12
2019-05-09T17:33:41.613Z,6.87
2019-05-09T17:36:11.474Z,6.80
2019-05-09T17:38:41.275Z,7.65
2019-05-09T17:41:11.082Z,8.20
2019-05-09T17:43:41.009Z,8.18
2019-05-09T17:46:10.819Z,8.53
2019-05-09T17:48:40.629Z,8.53
2019-05-09T17:51:10.437Z,9.78
2019-05-09T17:53:40.268Z,8.48
2019-05-09T17:56:10.944Z,9.45
2019-05-09T17:58:40.888Z,9.05
2019-05-09T18:01:10.724Z,7.40
2019-05-09T18:03:40.589Z,8.15
2019-05-09T18:06:10.401Z,7.08
2019-05-09T18:08:40.268Z,9.23
2019-05-09T18:18:39.032Z,7.25
2019-05-09T19:10:56.494Z,7.95
2019-05-09T19:13:26.377Z,8.65
2019-05-09T19:16:00.372Z,8.68
2019-05-09T19:18:31.824Z,9.23
2019-05-09T19:21:09.224Z,8.35
2019-05-09T19:23:39.022Z,8.15
2019-05-09T19:26:10.816Z,9.33
2019-05-09T19:32:22.644Z,9.30
2019-05-09T19:34:52.559Z,11.18
2019-05-09T19:37:23.601Z,10.53
2019-05-09T19:39:53.618Z,9.88
2019-05-09T19:42:23.532Z,10.23
2019-05-09T19:44:53.448Z,10.43
2019-05-09T19:47:23.466Z,11.00
2019-05-09T19:49:53.379Z,10.65
2019-05-09T19:52:37.435Z,10.53
2019-05-09T19:54:55.872Z,11.78
2019-05-09T19:57:25.786Z,11.65
2019-05-09T19:59:55.645Z,11.90
2019-05-09T20:02:25.616Z,12.40
2019-05-09T20:04:55.632Z,12.50
2019-05-09T20:07:27.903Z,11.75
2019-05-09T20:10:02.545Z,10.50
2019-05-09T20:12:41.762Z,11.45
2019-05-09T20:15:13.315Z,14.18
2019-05-09T20:17:43.229Z,12.20
2019-05-09T20:20:15.097Z,12.18
2019-05-09T20:22:52.424Z,12.55
2019-05-09T20:25:17.480Z,11.97
2019-05-09T20:27:47.804Z,12.63
2019-05-09T20:30:17.719Z,13.58
2019-05-09T20:32:47.864Z,13.88
2019-05-09T20:35:17.991Z,12.93
2019-05-09T20:37:48.077Z,12.80
2019-05-09T20:40:18.197Z,11.03
2019-05-09T20:42:48.318Z,10.35
2019-05-09T20:45:18.436Z,12.07
2019-05-09T20:47:48.559Z,12.20
2019-05-09T20:50:18.982Z,11.12
2019-05-09T20:52:49.105Z,11.83
2019-05-09T20:55:19.221Z,11.78
2019-05-09T20:57:51.939Z,13.30
2019-05-09T21:00:21.099Z,13.60
2019-05-09T21:02:51.122Z,10.68
2019-05-09T21:05:21.235Z,13.00
2019-05-09T21:07:51.360Z,12.40
2019-05-09T21:10:21.577Z,13.55
2019-05-09T21:12:51.799Z,11.88
2019-05-09T21:15:21.919Z,11.83
2019-05-09T21:17:52.450Z,11.63
2019-05-09T21:20:22.656Z,12.33
2019-05-09T21:22:53.922Z,13.00
2019-05-09T21:25:24.446Z,14.38
2019-05-09T21:27:54.569Z,13.72
2019-05-09T21:30:24.595Z,13.55
2019-05-09T21:32:54.702Z,12.68
2019-05-09T21:35:24.721Z,12.70
2019-05-09T21:37:55.148Z,12.70
2019-05-09T21:40:25.166Z,14.35
2019-05-09T21:42:55.184Z,12.45
2019-05-09T21:45:25.097Z,12.37
2019-05-09T21:47:55.215Z,13.75
2019-05-09T21:50:25.439Z,13.45
2019-05-09T21:52:55.455Z,12.47
2019-05-09T21:55:25.481Z,12.80
2019-05-09T21:57:55.386Z,13.40
2019-05-09T22:00:32.166Z,10.65
2019-05-09T22:03:02.286Z,13.72
2019-05-09T22:05:32.298Z,12.30
2019-05-09T22:08:02.445Z,13.65
2019-05-09T22:10:32.434Z,13.05
2019-05-09T22:13:02.354Z,11.25
2019-05-09T22:15:32.271Z,11.50
2019-05-09T22:18:02.281Z,10.43
2019-05-09T22:20:32.298Z,10.72
2019-05-09T22:23:02.213Z,10.95
2019-05-09T22:25:32.128Z,11.10
2019-05-09T22:28:02.043Z,10.90
2019-05-09T22:30:31.882Z,10.88
2019-05-09T22:33:03.815Z,10.00
2019-05-09T22:35:33.425Z,11.43
2019-05-09T22:38:03.340Z,12.20
2019-05-09T22:40:33.255Z,13.48
2019-05-09T22:43:03.579Z,10.28
2019-05-09T22:45:34.313Z,13.65
2019-05-09T22:48:04.229Z,12.13
2019-05-09T22:50:34.142Z,10.88
2019-05-09T22:53:04.058Z,12.90
2019-05-09T22:55:34.075Z,13.50
2019-05-09T22:58:04.041Z,11.78
2019-05-09T23:00:34.006Z,13.15
2019-05-09T23:03:04.129Z,11.53
2019-05-09T23:05:35.166Z,11.30
2019-05-09T23:08:05.086Z,9.63
2019-05-09T23:10:34.997Z,12.18
2019-05-09T23:13:04.922Z,11.10
2019-05-09T23:15:36.465Z,10.78
2019-05-09T23:18:06.380Z,8.88
2019-05-09T23:20:44.083Z,10.95
2019-05-09T23:23:21.671Z,9.98
2019-05-09T23:25:51.793Z,10.10
2019-05-09T23:28:21.705Z,11.12
2019-05-09T23:30:53.259Z,10.18
2019-05-09T23:33:24.610Z,11.33
2019-05-09T23:35:54.537Z,10.48
2019-05-09T23:38:24.539Z,11.00
2019-05-09T23:40:54.453Z,11.08
2019-05-09T23:43:24.368Z,9.73
2019-05-09T23:45:54.283Z,10.58
2019-05-09T23:48:24.199Z,11.33
2019-05-09T23:50:54.112Z,9.88
2019-05-09T23:56:20.156Z,10.55
2019-05-09T23:59:08.299Z,10.55
